My Meet Scores
Aimee Hannigan, Flipstar Gymnastics Academy - MyMeetScores.com
Top100 | Top Teams | Upcoming Meets | Completed Meets | Latest | Add Scores | Help| Support | Bookmark and Share

Aimee Hannigan, Flipstar Gymnastics Academy
Personal Bests
LevelVault BarsBeamFloorAA
39.3759.800 9.7009.57538.000
49.2009.500 9.6509.55037.550
Meet Scores
Date Meet Team Session Level Division Vault Bars Beam Floor AA
2021-02-26 Kinetic Classic 2021 Flipstar Gymnastics Academy 10 4 Older 8.600 11 9.500 2 9.600 1T 9.375 3T 37.075 4
2021-02-19 BIG Classic 2021 Flipstar Gymnastics Academy 7B 4 Child C 8.450 7* 9.200 4 9.450 7* 9.500 2T 36.600 4T
2020-12-04 Flipstar's Home for the Holidays Flipstar Gymnastics Academy 2 4 All 9.000 3 9.500 2T 9.600 2T 9.450 3 37.550 2
2020-03-06 Illinois Level 4 State Championships Flipstar Gymnastics Academy 2 4 Ch E 8.875 14T 9.250 8T 9.650 6T 9.550 2 37.325 7
2020-02-21 Kinetic Classic Flipstar Gymnastics Academy 06 4 Younger 8.900 20T 9.225 32T 9.450 13T 9.250 17T 36.825 14
2020-02-14 Big Classic Flipstar Gymnastics Academy 4B 4 Child B 8.350 36T 9.325 6T 9.450 4T 9.425 9T 36.550 12
2020-02-07 IGI Chicago Style Meet Flipstar Gymnastics Academy 121 4 A 8.575 12T 9.200 5 9.400 1 9.000 13 36.175 5
2020-01-24 Sand Dollar Invitational 2020 Flipstar Gymnastics Academy E02 4 Jr A 8.250 11 9.125 3T 9.600 3 8.750 10 35.725 6
2019-12-13 Crossroads Classic Flipstar Gymnastics Academy 1 4 Ch B 9.200 3T 9.175 3 9.375 1 9.150 3 36.900 1
2019-12-07 Home for the Holidays 2019 Flipstar Gymnastics Academy 4 4 Jr B 8.550 9T 9.500 3T 9.150 2 8.675 7 35.875 5
2019-11-08 Illinois Judges Cup Flipstar Gymnastics Academy G5 4 All Ages 8.600 18T 9.350 3 9.175 13T 8.750 23T 35.875 10
2019-03-08 2019 Illinois Level 3 State Championship Flipstar Gymnastics Academy All 3 Ch F 9.375 9T 9.800 1 9.375 4T 9.450 9T 38.000 3
2019-02-23 Kinetic Classic 2019 Flipstar Gymnastics Academy 1 3 Younger 9.000 13T 9.250 9T 9.200 7T 9.275 2T 36.725 5
2019-02-08 Midwest Twisters Harley Meet Womens Flipstar Gymnastics Academy T06 3 8 a 9.175 8T 9.650 1 9.300 1 8.700 11T 36.825 3
2019-01-25 King Arthur Invitational Flipstar Gymnastics Academy 6 3 JR B 9.200 9T 9.425 2 9.700 1 9.525 2T 37.850 2
2019-01-11 Circle of Stars Gymnastics Flipstar Gymnastics Academy D04 3 Junior B 9.075 17 9.050 7T 8.725 20T 9.575 5 36.425 11
2018-12-13 2018 Atlantis Crown Invitational Flipstar Gymnastics Academy 05 3 7-8 yrs 8.950 10 9.125 2 9.575 1 9.300 5 36.950 4
2018-12-07 Horton Invite Flipstar Gymnastics Academy All 3 Yth A 9.350 2 9.475 1 9.325 2 9.450 3 37.600 2
2018-05-03 Illinois USA Gymnastics Level 3 State Championships Flipstar Gymnastics Academy 8 3 Ch B 8.925 26T 9.050 19T 9.100 9T 9.275 15 36.350 17
2018-02-23 Kinetic Classic Flipstar Gymnastics Academy 4 3 Younger 8.400 81T 9.000 61T 9.075 41T 9.125 59T 35.600 63
2018-02-16 Big Classic Flipstar Gymnastics Academy 6B 3 Child A 8.650 12 8.800 8 8.900 9T 9.400 3 35.750 10
2018-02-09 IGI Chicago Style Gymnastics Meet Flipstar Gymnastics Academy 42 3 631 LaSalle L3 A 8.075 23 8.450 15 8.650 12 9.275 4 34.450 16
2018-01-26 King Arthur Invitational Flipstar Gymnastics Academy 5 3 JRA 8.675 22 8.825 12 9.025 11 8.925 11 35.450 12
2017-11-17 SCGA Classic Flipstar Gymnastics Academy 1 3 Child 8.650 10 8.225 11 8.500 5 9.000 4 34.375 6
2017-11-10 Illinois NAWGJ Judges Cup 2017 Flipstar Gymnastics Academy S6 3 All Ages 8.600 62T 8.700 15T 7.550 51T 9.150 12T 34.000 41
Get your scores on
a t-shirt, pin, or hoodie

www.lazysuits.com